createdAt,value
2015-11-22T18:27:21.994Z,1.3
2015-11-22T18:28:21.013Z,1.3
2015-11-22T18:29:23.547Z,1.3
2015-11-22T18:30:20.088Z,1.3
2015-11-22T18:31:21.857Z,1.3
2015-11-22T18:32:21.374Z,1.3
2015-11-22T18:33:23.956Z,1.3
2015-11-22T18:34:20.490Z,1.3
2015-11-22T18:35:19.962Z,1.3
2015-11-22T18:36:19.479Z,1.3
2015-11-22T18:37:18.967Z,1.3
2015-11-22T18:38:18.438Z,1.3
2015-11-22T18:39:17.973Z,1.3
2015-11-22T18:40:17.521Z,1.3
2015-11-22T18:41:19.321Z,1.3
2015-11-22T18:43:21.343Z,1.3
2015-11-22T18:44:17.815Z,1.3
2015-11-22T18:45:17.364Z,1.3
2015-11-22T18:46:16.866Z,1.3
2015-11-22T18:47:16.354Z,1.3
2015-11-22T18:48:15.887Z,1.3
2015-11-22T18:49:15.625Z,1.3
2015-11-22T18:50:15.471Z,1.3
2015-11-22T18:51:17.208Z,1.3
2015-11-22T18:52:16.976Z,1.3
2015-11-22T18:53:16.745Z,1.3
2015-11-22T18:54:19.528Z,1.3
2015-11-22T18:55:16.281Z,1.3
2015-11-22T18:56:16.050Z,1.3
2015-11-22T18:57:15.818Z,1.3
2015-11-22T18:58:17.008Z,1.3
2015-11-22T18:59:18.408Z,1.4
2015-11-22T19:00:15.323Z,1.4
2015-11-22T19:02:16.785Z,1.4
2015-11-22T19:03:16.491Z,1.4
2015-11-22T19:04:16.243Z,1.4
2015-11-22T19:05:16.028Z,1.4
2015-11-22T19:06:15.780Z,1.4
2015-11-22T19:07:15.546Z,1.4
2015-11-22T19:08:15.313Z,1.5
2015-11-22T19:09:15.083Z,1.5
2015-11-22T19:10:14.913Z,1.5
2015-11-22T19:11:16.666Z,1.5
2015-11-22T19:12:16.435Z,1.5
2015-11-22T19:15:15.771Z,1.5
2015-11-22T19:16:15.508Z,1.5
2015-11-22T19:17:15.276Z,1.6
2015-11-22T19:18:15.044Z,1.5
2015-11-22T19:19:14.829Z,1.6
2015-11-22T19:21:16.396Z,1.6
2015-11-22T19:22:16.165Z,1.6
2015-11-22T19:23:15.933Z,1.6
2015-11-22T19:26:15.223Z,1.6
2015-11-22T19:27:15.006Z,1.6
2015-11-22T19:28:17.790Z,1.6
2015-11-22T19:29:14.543Z,1.6
2015-11-22T19:30:14.359Z,1.6
2015-11-22T19:31:16.143Z,1.7
2015-11-22T19:32:15.895Z,1.7
2015-11-22T19:34:16.870Z,1.6
2015-11-22T19:35:15.185Z,1.7
2015-11-22T19:36:14.968Z,1.7
2015-11-22T19:37:14.753Z,1.7
2015-11-22T19:38:14.489Z,1.7
2015-11-22T19:39:14.258Z,1.7
2015-11-22T19:40:14.089Z,1.7
2015-11-22T19:41:15.842Z,1.7
2015-11-22T19:42:18.609Z,1.7
2015-11-22T19:43:14.988Z,1.7
2015-11-22T19:44:14.381Z,1.7
2015-11-22T19:45:13.900Z,1.7
2015-11-22T19:46:13.402Z,0
2015-11-22T19:48:12.423Z,0
2015-11-22T19:51:12.744Z,1.7
2015-11-22T19:53:14.297Z,1.6
2015-11-22T19:54:13.550Z,1.6
2015-11-22T19:57:08.308Z,1.6
2015-11-22T19:59:09.828Z,1.5
2015-11-22T20:00:06.112Z,1.5
2015-11-22T20:01:07.864Z,1.5
2015-11-22T20:02:06.867Z,1.5
2015-11-22T20:03:05.605Z,1.5
2015-11-22T20:04:04.355Z,1.4
2015-11-22T20:05:03.123Z,1.4
2015-11-22T20:06:01.860Z,1.4
2015-11-22T20:07:00.582Z,1.4
2015-11-22T20:07:59.335Z,1.4
2015-11-22T20:08:58.088Z,1.3
2015-11-22T20:09:56.886Z,1.3
2015-11-22T20:10:58.624Z,1.3
2015-11-22T20:11:57.376Z,1.3
2015-11-22T20:12:56.098Z,1.3
2015-11-22T20:13:54.851Z,1.3
2015-11-22T20:15:52.325Z,1.3
2015-11-22T20:17:49.846Z,1.2
2015-11-22T20:20:48.620Z,1.1
2015-11-22T20:21:47.107Z,1.1
2015-11-22T20:24:42.567Z,1.1
2015-11-22T20:27:38.250Z,1
2015-11-22T20:28:37.019Z,1.1
2015-11-22T20:29:35.775Z,1.1
2015-11-22T20:31:36.262Z,1
2015-11-22T20:32:35.119Z,1.1
2015-11-22T20:33:33.741Z,1.1
2015-11-22T20:34:32.505Z,1.1
2015-11-22T20:35:31.206Z,1
2015-11-22T20:36:29.957Z,1.1
2015-11-22T20:37:28.724Z,1.1
2015-11-22T20:38:27.459Z,1.1
2015-11-22T20:39:26.490Z,1.1
2015-11-22T20:40:28.257Z,1.1
2015-11-22T20:42:26.542Z,1.1
2015-11-22T20:43:25.763Z,1.1
2015-11-22T20:44:25.014Z,1.1
2015-11-22T20:45:24.267Z,1.1
2015-11-22T20:46:23.535Z,1.1
2015-11-22T20:47:22.789Z,1.1
2015-11-22T20:49:24.387Z,1.1
2015-11-22T20:50:23.139Z,1.2
2015-11-22T21:02:19.044Z,1.2
2015-11-22T21:06:17.899Z,1.3
2015-11-22T21:14:18.125Z,1.4
2015-11-22T21:18:17.182Z,1.4
2015-11-22T21:19:17.013Z,1.4
2015-11-22T21:20:18.765Z,1.4
2015-11-22T21:21:18.535Z,1.4
2015-11-22T21:22:18.318Z,1.4
2015-11-22T21:23:18.071Z,1.4
2015-11-22T21:24:17.839Z,1.4
2015-11-22T21:25:17.639Z,1.4
2015-11-22T21:26:17.392Z,1.4
2015-11-22T21:27:17.159Z,1.4
2015-11-22T21:28:16.663Z,1.4
2015-11-22T21:29:17.634Z,1.4
2015-11-22T21:30:18.028Z,1.4
2015-11-22T21:31:17.546Z,1.4
2015-11-22T21:32:17.001Z,1.3
2015-11-22T21:33:16.301Z,1.4
2015-11-22T21:34:15.522Z,1.3
2015-11-22T21:35:14.776Z,1.3
2015-11-22T21:37:13.311Z,1.3
2015-11-22T21:38:12.565Z,1.3
2015-11-22T21:39:11.880Z,1.3
2015-11-22T21:40:13.633Z,1.3
2015-11-22T21:41:12.870Z,1.3
2015-11-22T21:43:14.423Z,1.3
2015-11-22T21:44:10.644Z,1.3
2015-11-22T21:53:06.510Z,1.3
2015-11-22T21:54:05.808Z,1.3
2015-11-22T21:55:05.061Z,1.3
2015-11-22T21:56:04.549Z,1.4
2015-11-22T21:57:03.801Z,1.3
2015-11-22T21:58:03.055Z,1.3
2015-11-22T21:59:02.374Z,1.3
2015-11-22T22:00:04.143Z,1.3
2015-11-22T22:01:03.395Z,1.4
2015-11-22T22:04:01.201Z,1.3
2015-11-22T22:05:00.421Z,1.3
2015-11-22T22:05:59.722Z,1.3
2015-11-22T22:06:58.943Z,1.3
2015-11-22T22:07:58.195Z,1.3
2015-11-22T22:08:57.511Z,1.3
2015-11-22T22:10:58.532Z,1.3
2015-11-22T22:11:57.784Z,1.3
2015-11-22T22:12:57.084Z,1.3
2015-11-22T22:13:56.290Z,1.3
2015-11-22T22:14:55.559Z,1.3
2015-11-22T22:15:54.826Z,1.3
2015-11-22T22:16:54.064Z,1.3
2015-11-22T22:17:53.081Z,1.3
2015-11-22T22:18:52.147Z,1.3
2015-11-22T22:19:53.885Z,1.3
2015-11-22T22:20:52.903Z,1.2
2015-11-22T22:21:51.905Z,1.2
2015-11-22T22:22:50.893Z,1.2
2015-11-22T22:23:49.942Z,1.2
2015-11-22T22:24:48.914Z,1.2
2015-11-22T22:25:47.917Z,1.2
2015-11-22T22:26:46.654Z,1.1
2015-11-22T22:29:46.208Z,1.1
2015-11-22T22:30:44.961Z,1.1
2015-11-22T22:31:43.698Z,1.1
2015-11-22T22:32:42.448Z,1.1
2015-11-22T22:35:38.707Z,1
2015-11-22T22:36:37.428Z,1
2015-11-22T22:37:36.166Z,1
2015-11-22T22:38:37.981Z,1
2015-11-22T22:40:35.486Z,0.9
2015-11-22T22:41:34.238Z,0.9
2015-11-22T22:42:33.022Z,0.9
2015-11-22T22:43:31.729Z,0.9
2015-11-22T22:44:30.466Z,0.9
2015-11-22T22:45:29.203Z,0.9
2015-11-22T22:46:27.940Z,0.9
2015-11-22T22:47:26.724Z,0.8
2015-11-22T22:48:25.493Z,0.8
2015-11-22T22:49:27.261Z,0.8
2015-11-22T22:50:25.998Z,0.8
2015-11-22T22:51:24.751Z,0.8
2015-11-22T22:52:23.487Z,0.8
2015-11-22T22:53:25.271Z,0.8
2015-11-22T22:54:20.977Z,0.8
2015-11-22T22:55:19.715Z,0.8
2015-11-22T22:56:18.467Z,0.8
2015-11-22T22:57:17.220Z,0.8
2015-11-22T22:58:16.035Z,0.8
2015-11-22T22:59:17.772Z,0.8
2015-11-22T23:00:17.025Z,0.8
2015-11-22T23:03:14.329Z,0.8
2015-11-22T23:04:13.551Z,0.8
2015-11-22T23:05:12.804Z,0.8
2015-11-22T23:07:11.325Z,0.9
2015-11-22T23:11:10.942Z,0.9
2015-11-22T23:12:10.164Z,0.9
2015-11-22T23:13:09.464Z,0.9
2015-11-22T23:14:11.701Z,0.9
2015-11-22T23:15:11.001Z,0.9
2015-11-22T23:16:10.487Z,0.9
2015-11-22T23:17:06.975Z,0.9
2015-11-22T23:18:09.290Z,0.9
2015-11-22T23:19:08.042Z,0.9
2015-11-22T23:21:10.111Z,0.9
2015-11-22T23:22:06.597Z,0.9
2015-11-22T23:23:06.116Z,0.9
2015-11-22T23:24:05.916Z,0.9
2015-11-22T23:25:05.652Z,0.9
2015-11-22T23:26:05.421Z,0.9
2015-11-22T23:27:05.189Z,0.9
2015-11-22T23:28:08.035Z,0.9
2015-11-22T23:29:09.820Z,0.9
2015-11-22T23:30:06.588Z,1
2015-11-22T23:31:09.357Z,1
2015-11-22T23:32:06.094Z,1
2015-11-22T23:33:05.878Z,1
2015-11-22T23:34:05.630Z,1
2015-11-22T23:35:05.414Z,1
2015-11-22T23:36:05.183Z,1
2015-11-22T23:37:06.373Z,1
2015-11-22T23:38:06.188Z,1
2015-11-22T23:39:06.535Z,1.1
2015-11-22T23:40:06.302Z,1.1
2015-11-22T23:41:07.510Z,1.1
2015-11-22T23:42:05.887Z,1.1
2015-11-22T23:43:05.624Z,1.1
2015-11-22T23:44:05.393Z,1.1
2015-11-22T23:45:05.177Z,1.1
2015-11-22T23:46:04.663Z,1.1
2015-11-22T23:48:03.762Z,1
2015-11-22T23:49:05.546Z,1.1
2015-11-22T23:50:05.034Z,1.1
2015-11-22T23:51:07.551Z,1
2015-11-22T23:52:04.054Z,1.1
2015-11-22T23:54:05.606Z,1
2015-11-22T23:55:04.860Z,1
2015-11-22T23:57:59.712Z,1
2015-11-22T23:59:01.436Z,1
